Peoa, Utah
Current Conditions -  °F | °C
As of 8:55 PM on Saturday 24 Jan 2015 (Local Time) from K36U Reporting Station
Overcast Overcast  
Wind Chill: 27°   Ceiling: 3700
Heat Index: 32°   Visibility: 10mi
Dew Point: 25°   Wind: 5mph
Humidity: 75%   Direction: 120°ESE
Pressure: 30.45"   Gusts: NA
Location:  40.72°N, 111.34°W
Report Text: K36U 250355Z AUTO 12004KT 10SM OVC037 00/M04 A3045 RMK AO2
Loading
Personal Weather Stations






























Interactive Weather Map New forecast layout! Learn more

10-Day Weather Forecast

Advertisements
Track Severe Weather on mobile